Weather at Telegraph Harbour Seaplane Base

Public forecast

Using degrees Celsius for public forecast. Weather courtesy of forecast.io.

Closest aviation weather report (METAR) to Telegraph Harbour Seaplane Base

Report is more than 2 hours old.

Closest report is Nanaimo Airport, 9.6 nm (17.7 km) WNW. Retrieved 2020/09/21 04:00 UTC (2 hours ago):

CYCD 210400Z 00000KT 25SM SKC 13/11 A2999 RMK LAST STFD OBS/NEXT 211300Z SLP157

Closest aviation forecast (TAF) to Telegraph Harbour Seaplane Base

Forecast is more than 6 hours old.

Closest forecast is Nanaimo Airport, 9.6 nm (17.7 km) WNW. Retrieved 2020-09-21 00:00 UTC (6 hours ago):

TAF CYCD 202341Z 2100/2104 10005KT P6SM FEW020 SCT080 RMK NXT FCST WILL BE ISSUED AT 211445Z